Time;durP1;ratioP1;P1;durP2;ratioP2;P2;SDS_P1;SDS_P2;PMS_P1;PMS_P2;Temp;Humidity;BMP_temperature;BMP_pressure;BME280_temperature;BME280_humidity;BME280_pressure;Samples;Min_cycle;Max_cycle;Signal;HPM_P1;HPM_P2
2022/08/04 00:00:13;;;;;;;7.50;2.90;;;22.70;99.90;;;;;;5044669;28;20553;-60
2022/08/04 00:03:25;;;;;;;7.47;2.35;;;22.40;99.90;;;;;;5050482;28;20021;-60
2022/08/04 00:06:06;;;;;;;10.25;2.30;;;22.60;99.90;;;;;;4988037;28;20497;-61
2022/08/04 00:08:48;;;;;;;9.38;2.72;;;22.30;99.90;;;;;;5035660;28;20104;-60
2022/08/04 00:11:23;;;;;;;5.95;2.42;;;22.40;99.90;;;;;;5051880;28;20032;-60
2022/08/04 00:13:57;;;;;;;7.90;2.40;;;22.30;99.90;;;;;;5046519;28;20563;-59
2022/08/04 00:16:27;;;;;;;11.68;2.67;;;22.40;99.90;;;;;;5049678;28;20028;-60
2022/08/04 00:19:00;;;;;;;7.93;2.25;;;22.40;99.90;;;;;;5057010;28;20315;-60
2022/08/04 00:21:27;;;;;;;13.03;2.50;;;22.50;99.90;;;;;;5045583;28;20057;-59
2022/08/04 00:23:55;;;;;;;7.50;2.60;;;22.50;99.90;;;;;;5046126;28;20294;-59
2022/08/04 00:26:21;;;;;;;7.35;2.30;;;22.30;99.90;;;;;;5045533;28;20033;-60
2022/08/04 00:28:47;;;;;;;6.25;2.00;;;22.50;99.90;;;;;;5038963;28;20392;-60
2022/08/04 00:31:14;;;;;;;6.05;2.00;;;22.60;99.90;;;;;;5044829;28;20021;-60
2022/08/04 00:33:44;;;;;;;9.32;2.33;;;22.80;99.90;;;;;;5045669;28;20118;-60
2022/08/04 00:36:13;;;;;;;8.23;2.33;;;23.00;99.90;;;;;;5045322;28;20138;-59
2022/08/04 00:38:43;;;;;;;8.73;2.75;;;23.30;99.90;;;;;;5045577;28;20389;-60
2022/08/04 00:41:18;;;;;;;6.45;2.28;;;23.30;99.90;;;;;;5045270;28;20032;-60
2022/08/04 00:44:17;;;;;;;10.65;2.05;;;23.30;99.90;;;;;;5044356;28;20021;-60
2022/08/04 00:46:49;;;;;;;12.02;2.45;;;23.40;99.90;;;;;;5042316;28;20436;-60
2022/08/04 00:49:30;;;;;;;10.48;2.50;;;23.40;99.90;;;;;;5045217;28;20104;-60
2022/08/04 00:52:09;;;;;;;14.30;2.90;;;23.30;99.90;;;;;;5044562;28;20779;-60
2022/08/04 00:54:45;;;;;;;12.23;2.50;;;23.30;99.90;;;;;;5038538;28;20044;-59
2022/08/04 00:57:27;;;;;;;13.63;3.22;;;23.20;99.90;;;;;;5040086;28;20037;-61
2022/08/04 00:59:52;;;;;;;9.43;2.63;;;23.00;99.90;;;;;;5027769;28;20087;-60
2022/08/04 01:02:42;;;;;;;10.88;2.45;;;23.10;99.90;;;;;;5044966;28;20431;-60
2022/08/04 01:05:29;;;;;;;5.80;1.95;;;23.30;99.90;;;;;;5044479;28;20298;-59
2022/08/04 01:08:29;;;;;;;7.57;2.17;;;23.30;99.90;;;;;;5040658;28;20028;-60
2022/08/04 01:11:04;;;;;;;8.18;1.90;;;23.50;99.90;;;;;;5045201;28;20463;-59
2022/08/04 01:14:20;;;;;;;10.05;2.28;;;23.60;99.90;;;;;;5047535;28;20008;-59
2022/08/04 01:16:52;;;;;;;11.80;1.90;;;23.70;99.90;;;;;;5034289;28;20124;-60
2022/08/04 01:19:49;;;;;;;12.65;2.15;;;23.70;99.90;;;;;;5045734;28;20047;-59
2022/08/04 01:22:33;;;;;;;9.95;1.83;;;23.70;99.90;;;;;;5042870;28;20039;-59
2022/08/04 01:25:44;;;;;;;7.75;2.10;;;23.70;99.90;;;;;;5044660;28;20028;-59
2022/08/04 01:28:15;;;;;;;10.55;1.92;;;23.60;99.90;;;;;;5043924;28;20025;-59
2022/08/04 01:30:44;;;;;;;8.30;2.00;;;23.70;99.90;;;;;;5044567;28;20096;-59
2022/08/04 01:33:13;;;;;;;11.77;2.00;;;23.70;99.90;;;;;;5044764;28;20642;-61
2022/08/04 01:36:00;;;;;;;9.38;1.88;;;23.70;99.90;;;;;;5044461;28;20444;-59
2022/08/04 01:38:33;;;;;;;8.13;1.95;;;23.70;99.90;;;;;;5039830;28;20021;-59
2022/08/04 01:41:02;;;;;;;15.13;2.10;;;23.60;99.90;;;;;;5044384;28;20464;-60
2022/08/04 01:43:29;;;;;;;7.53;2.05;;;23.60;99.90;;;;;;5044238;28;20366;-60
2022/08/04 01:46:00;;;;;;;10.82;2.05;;;23.50;99.90;;;;;;5044109;28;20443;-60
2022/08/04 01:48:26;;;;;;;9.63;1.80;;;23.60;99.90;;;;;;5043593;28;20032;-60
2022/08/04 01:50:55;;;;;;;5.20;1.90;;;23.60;99.90;;;;;;5044264;28;20037;-60
2022/08/04 01:53:23;;;;;;;6.97;2.05;;;23.30;99.90;;;;;;5044277;28;20785;-60
2022/08/04 01:55:51;;;;;;;8.27;2.08;;;23.10;99.90;;;;;;5043731;28;20529;-60
2022/08/04 01:58:18;;;;;;;6.00;1.90;;;23.10;99.90;;;;;;5048126;28;20025;-60
2022/08/04 02:01:09;;;;;;;6.57;1.75;;;22.70;99.90;;;;;;5043396;28;20032;-60
2022/08/04 02:03:39;;;;;;;5.07;1.65;;;22.70;99.90;;;;;;5043351;28;20417;-59
2022/08/04 02:06:30;;;;;;;6.80;2.08;;;22.60;99.90;;;;;;5043884;28;20078;-60
2022/08/04 02:09:21;;;;;;;9.60;2.30;;;22.70;99.90;;;;;;5043412;28;20090;-59
2022/08/04 02:12:12;;;;;;;8.07;2.10;;;22.50;99.90;;;;;;5043595;28;20033;-60
2022/08/04 02:14:48;;;;;;;6.07;1.90;;;22.40;99.90;;;;;;5021808;28;20459;-59
2022/08/04 02:17:27;;;;;;;6.85;1.80;;;22.40;99.90;;;;;;5046385;28;20142;-60
2022/08/04 02:20:05;;;;;;;6.97;1.83;;;22.80;99.90;;;;;;5043387;28;20099;-59
2022/08/04 02:22:38;;;;;;;7.43;2.05;;;22.90;99.90;;;;;;5039954;28;20094;-59
2022/08/04 02:25:06;;;;;;;5.25;1.80;;;22.90;99.90;;;;;;5031309;28;20051;-59
2022/08/04 02:27:54;;;;;;;6.20;2.08;;;22.60;99.90;;;;;;5041154;28;20436;-60
2022/08/04 02:30:20;;;;;;;7.80;1.90;;;22.30;99.90;;;;;;5039828;28;20438;-60
2022/08/04 02:32:51;;;;;;;6.43;2.00;;;22.20;99.90;;;;;;5042888;28;20060;-59
2022/08/04 02:35:26;;;;;;;8.70;2.08;;;22.10;99.90;;;;;;5043110;28;20051;-60
2022/08/04 02:38:05;;;;;;;4.53;1.88;;;22.20;99.90;;;;;;5037400;28;20120;-59
2022/08/04 02:40:31;;;;;;;9.20;1.95;;;22.10;99.90;;;;;;5042301;28;20028;-60
2022/08/04 02:42:58;;;;;;;7.38;2.10;;;22.30;99.90;;;;;;5035114;28;20408;-60
2022/08/04 02:45:25;;;;;;;6.88;2.20;;;22.30;99.90;;;;;;5042648;28;20021;-60
2022/08/04 02:47:54;;;;;;;9.55;1.80;;;22.00;99.90;;;;;;5040247;28;20556;-60
2022/08/04 02:50:20;;;;;;;7.75;2.03;;;21.90;99.90;;;;;;5043431;28;20555;-60
2022/08/04 02:52:49;;;;;;;7.05;2.10;;;21.90;99.90;;;;;;5043642;28;20387;-60
2022/08/04 02:55:17;;;;;;;10.40;2.22;;;21.70;99.90;;;;;;5042417;28;20025;-60
2022/08/04 02:57:46;;;;;;;5.35;1.63;;;21.70;99.90;;;;;;5043058;28;20029;-60
2022/08/04 03:00:13;;;;;;;8.32;2.17;;;21.60;99.90;;;;;;5043051;28;20556;-59
2022/08/04 03:03:08;;;;;;;10.75;2.30;;;21.60;99.90;;;;;;5043125;28;20048;-60
2022/08/04 03:05:47;;;;;;;8.65;2.00;;;21.50;99.90;;;;;;5042761;28;20021;-60
2022/08/04 03:08:31;;;;;;;5.35;2.10;;;21.50;99.90;;;;;;5043098;28;20026;-59
2022/08/04 03:11:02;;;;;;;4.68;2.00;;;21.50;99.90;;;;;;5043284;28;20021;-60
2022/08/04 03:14:07;;;;;;;7.72;2.22;;;21.50;99.90;;;;;;5045800;28;20089;-59
2022/08/04 03:16:41;;;;;;;5.68;2.33;;;21.50;99.90;;;;;;5040032;28;20123;-60
2022/08/04 03:19:36;;;;;;;5.20;2.03;;;21.40;99.90;;;;;;5046148;28;20057;-59
2022/08/04 03:22:07;;;;;;;6.30;2.00;;;21.30;99.90;;;;;;5038724;28;20027;-60
2022/08/04 03:24:32;;;;;;;6.32;2.03;;;21.20;99.90;;;;;;5043129;28;20036;-59
2022/08/04 03:27:10;;;;;;;10.35;2.30;;;21.20;99.90;;;;;;5043269;28;20025;-60
2022/08/04 03:29:44;;;;;;;8.27;2.42;;;21.20;99.90;;;;;;5040712;28;20039;-59
2022/08/04 03:32:45;;;;;;;7.90;2.33;;;21.20;99.90;;;;;;5043084;28;20116;-60
2022/08/04 03:35:44;;;;;;;9.18;2.22;;;21.20;99.90;;;;;;5044901;28;20047;-60
2022/08/04 03:38:38;;;;;;;5.35;2.15;;;21.10;99.90;;;;;;5045412;28;20068;-59
2022/08/04 03:41:10;;;;;;;8.70;2.28;;;21.20;99.90;;;;;;5046757;28;20039;-60
2022/08/04 03:43:50;;;;;;;5.35;2.33;;;21.10;99.90;;;;;;5046444;28;20067;-59
2022/08/04 03:46:36;;;;;;;6.38;2.20;;;21.10;99.90;;;;;;5046461;28;20117;-60
2022/08/04 03:49:20;;;;;;;6.47;2.17;;;21.10;99.90;;;;;;5046632;28;20147;-59
2022/08/04 03:55:23;;;;;;;7.57;2.05;;;20.90;99.90;;;;;;5046840;28;20075;-60
2022/08/04 03:58:13;;;;;;;6.22;2.20;;;20.80;99.90;;;;;;5046268;28;20104;-59
2022/08/04 04:00:59;;;;;;;5.63;2.00;;;20.80;99.90;;;;;;5042430;28;20374;-59
2022/08/04 04:03:48;;;;;;;9.73;2.22;;;20.80;99.90;;;;;;5046390;28;20088;-59
2022/08/04 04:06:32;;;;;;;6.97;2.40;;;20.80;99.90;;;;;;5046154;28;20468;-59
2022/08/04 04:09:25;;;;;;;8.40;2.58;;;20.80;99.90;;;;;;5046326;28;20618;-59
2022/08/04 04:12:06;;;;;;;8.02;2.53;;;20.70;99.90;;;;;;5031007;28;20128;-60
2022/08/04 04:15:20;;;;;;;7.50;2.03;;;20.70;99.90;;;;;;5042129;28;20051;-60
2022/08/04 04:18:15;;;;;;;5.63;2.22;;;20.80;99.90;;;;;;5043284;28;20046;-59
2022/08/04 04:20:50;;;;;;;8.65;2.38;;;20.80;99.90;;;;;;5044364;28;20439;-59
2022/08/04 04:23:46;;;;;;;7.47;2.20;;;20.70;99.90;;;;;;5045062;28;20154;-60
2022/08/04 04:26:44;;;;;;;8.40;2.40;;;20.80;99.90;;;;;;5040739;28;20798;-59
2022/08/04 04:29:18;;;;;;;10.60;2.30;;;20.80;99.90;;;;;;5044398;28;20013;-59
2022/08/04 04:32:13;;;;;;;6.53;2.30;;;20.70;99.90;;;;;;5045985;28;20090;-59
2022/08/04 04:34:43;;;;;;;9.80;2.50;;;20.80;99.90;;;;;;5041804;28;20661;-59
2022/08/04 04:37:49;;;;;;;6.20;2.38;;;20.70;99.90;;;;;;5033879;28;20127;-59
2022/08/04 04:40:58;;;;;;;11.02;2.67;;;20.90;99.90;;;;;;5045967;28;20174;-60
2022/08/04 04:43:24;;;;;;;8.40;2.60;;;20.90;99.90;;;;;;5041596;28;20028;-60
2022/08/04 04:46:15;;;;;;;6.38;2.03;;;20.90;99.90;;;;;;5049698;28;20028;-59
2022/08/04 04:49:00;;;;;;;7.05;2.30;;;20.90;99.90;;;;;;5045694;28;20390;-61
2022/08/04 04:51:33;;;;;;;7.03;2.45;;;21.00;99.90;;;;;;5045468;28;20032;-59
2022/08/04 04:54:10;;;;;;;6.50;2.58;;;20.90;99.90;;;;;;5045341;28;20543;-59
2022/08/04 04:56:44;;;;;;;7.63;2.40;;;20.90;99.90;;;;;;5039484;28;20532;-60
2022/08/04 04:59:14;;;;;;;5.25;2.15;;;20.90;99.90;;;;;;5051129;28;20017;-59
2022/08/04 05:02:12;;;;;;;6.55;2.13;;;20.90;99.90;;;;;;5044833;28;20029;-59
2022/08/04 05:05:10;;;;;;;6.43;2.38;;;21.00;99.90;;;;;;5045346;28;20461;-60
2022/08/04 05:07:57;;;;;;;6.97;2.50;;;21.00;99.90;;;;;;5031387;28;20055;-59
2022/08/04 05:11:00;;;;;;;9.98;3.08;;;21.10;99.90;;;;;;5044668;28;20025;-59
2022/08/04 05:13:36;;;;;;;10.02;3.47;;;21.20;99.90;;;;;;5039399;28;20477;-59
2022/08/04 05:16:30;;;;;;;8.10;3.15;;;21.40;99.90;;;;;;5043671;28;20401;-60
2022/08/04 05:19:33;;;;;;;11.23;3.80;;;21.50;99.90;;;;;;5042104;28;20179;-60
2022/08/04 05:22:05;;;;;;;8.57;4.25;;;21.70;99.90;;;;;;5026774;28;20029;-59
2022/08/04 05:24:36;;;;;;;9.98;4.28;;;21.80;99.90;;;;;;5038861;28;20086;-60
2022/08/04 05:27:10;;;;;;;9.38;4.30;;;21.90;99.90;;;;;;5044482;28;20147;-60
2022/08/04 05:29:40;;;;;;;8.20;4.22;;;22.10;99.90;;;;;;5043698;28;20033;-59
2022/08/04 05:32:11;;;;;;;10.52;4.00;;;22.10;99.90;;;;;;5044531;28;20503;-59
2022/08/04 05:34:46;;;;;;;11.13;4.53;;;22.20;99.90;;;;;;5044758;28;20032;-60
2022/08/04 05:37:16;;;;;;;11.50;4.60;;;22.30;99.90;;;;;;5043079;28;20036;-59
2022/08/04 05:39:44;;;;;;;7.88;5.25;;;;;;;;;;5042464;28;20037;-60
2022/08/04 05:42:11;;;;;;;14.15;7.20;;;22.80;99.90;;;;;;5044220;28;20029;-60
2022/08/04 05:44:38;;;;;;;29.80;13.82;;;22.70;99.90;;;;;;5044632;28;20052;-60
2022/08/04 05:47:05;;;;;;;26.15;14.38;;;22.60;99.90;;;;;;5042687;28;20509;-60
2022/08/04 05:49:32;;;;;;;33.13;20.77;;;22.60;99.90;;;;;;5044272;28;20033;-60
2022/08/04 05:52:02;;;;;;;34.85;22.90;;;22.60;99.90;;;;;;5041727;28;20543;-60
2022/08/04 05:54:30;;;;;;;43.40;27.27;;;22.60;99.90;;;;;;5044019;28;20553;-59
2022/08/04 05:56:57;;;;;;;47.17;29.00;;;22.70;99.90;;;;;;5043222;28;20538;-60
2022/08/04 05:59:24;;;;;;;49.28;32.22;;;22.70;99.90;;;;;;5044248;28;20032;-59
2022/08/04 06:01:51;;;;;;;47.83;31.45;;;22.90;99.90;;;;;;5043162;28;20480;-60
2022/08/04 06:04:20;;;;;;;50.90;32.17;;;23.10;99.90;;;;;;5043962;28;20083;-59
2022/08/04 06:06:47;;;;;;;48.47;31.70;;;23.10;99.90;;;;;;5043973;28;20033;-60
2022/08/04 06:09:13;;;;;;;49.58;31.42;;;23.20;99.90;;;;;;5044167;28;20025;-60
2022/08/04 06:11:40;;;;;;;50.70;29.40;;;23.30;99.90;;;;;;5043948;28;20368;-60
2022/08/04 06:14:09;;;;;;;44.83;27.00;;;23.30;99.90;;;;;;5045525;28;20053;-60
2022/08/04 06:16:38;;;;;;;38.08;24.17;;;23.40;99.90;;;;;;5044200;28;20033;-60
2022/08/04 06:19:07;;;;;;;34.47;20.92;;;23.50;99.90;;;;;;5046708;28;20034;-60
2022/08/04 06:21:36;;;;;;;30.70;16.80;;;23.50;99.90;;;;;;5042399;28;20025;-60
2022/08/04 06:24:04;;;;;;;21.33;12.57;;;23.70;99.90;;;;;;5039765;28;20017;-60
2022/08/04 06:26:32;;;;;;;22.25;10.05;;;23.70;99.90;;;;;;5043771;28;20043;-61
2022/08/04 06:29:00;;;;;;;17.02;8.45;;;23.80;99.90;;;;;;5043501;28;20108;-60
2022/08/04 06:31:45;;;;;;;15.45;7.18;;;23.90;99.90;;;;;;5043334;28;20056;-60
2022/08/04 06:34:13;;;;;;;16.33;7.00;;;24.00;99.90;;;;;;5041786;28;20508;-61
2022/08/04 06:36:41;;;;;;;17.88;6.32;;;24.10;99.90;;;;;;5043498;28;20033;-59
2022/08/04 06:39:08;;;;;;;12.57;5.78;;;24.20;99.90;;;;;;5041853;28;20029;-60
2022/08/04 06:41:34;;;;;;;25.10;8.18;;;24.20;99.90;;;;;;5043545;28;20029;-60
2022/08/04 06:44:06;;;;;;;14.75;5.80;;;24.20;99.90;;;;;;5043433;28;20017;-60
2022/08/04 06:46:35;;;;;;;11.30;5.47;;;24.10;99.90;;;;;;5035259;28;20373;-59
2022/08/04 06:49:03;;;;;;;11.13;5.60;;;24.10;99.90;;;;;;5043510;28;20029;-60
2022/08/04 06:51:30;;;;;;;11.75;5.88;;;24.00;99.90;;;;;;5043858;28;20033;-60
2022/08/04 06:53:56;;;;;;;12.45;5.50;;;24.10;99.90;;;;;;5043358;28;20025;-60
2022/08/04 06:56:23;;;;;;;13.50;5.30;;;24.10;99.90;;;;;;5042292;28;20183;-60
2022/08/04 06:58:50;;;;;;;10.48;4.93;;;24.00;99.90;;;;;;5036828;28;20021;-59
2022/08/04 07:01:19;;;;;;;18.38;5.78;;;24.20;99.90;;;;;;5043188;28;20017;-60
2022/08/04 07:03:45;;;;;;;10.65;5.22;;;24.00;99.90;;;;;;5043310;28;20040;-60
2022/08/04 07:06:12;;;;;;;13.63;5.53;;;24.40;99.90;;;;;;5043013;28;20017;-60
2022/08/04 07:08:38;;;;;;;10.90;5.00;;;24.60;99.90;;;;;;5044109;28;20293;-60
2022/08/04 07:11:05;;;;;;;11.30;4.50;;;25.10;99.90;;;;;;5047405;28;20354;-59
2022/08/04 07:13:31;;;;;;;9.05;4.53;;;25.00;99.90;;;;;;5043459;28;20032;-60
2022/08/04 07:15:58;;;;;;;10.52;4.18;;;25.20;99.90;;;;;;5047068;28;20129;-60
2022/08/04 07:18:24;;;;;;;9.70;3.70;;;25.30;99.90;;;;;;5054819;28;20028;-60
2022/08/04 07:20:50;;;;;;;7.70;3.65;;;25.40;99.90;;;;;;5045609;28;20921;-60
2022/08/04 07:23:22;;;;;;;6.57;3.50;;;24.30;99.90;;;;;;5047127;28;20359;-59
2022/08/04 07:25:56;;;;;;;8.50;3.38;;;25.60;99.90;;;;;;5047069;28;20031;-59
2022/08/04 07:28:23;;;;;;;7.80;3.65;;;25.70;99.90;;;;;;5044653;28;20461;-60
2022/08/04 07:30:49;;;;;;;9.45;3.90;;;25.70;99.90;;;;;;5043737;28;20021;-59
2022/08/04 07:33:16;;;;;;;6.18;3.03;;;25.60;99.90;;;;;;5048579;28;20678;-60
2022/08/04 07:35:42;;;;;;;5.43;2.42;;;26.00;99.90;;;;;;5046262;28;20032;-60
2022/08/04 07:38:10;;;;;;;7.93;3.05;;;25.80;99.90;;;;;;5046675;28;20511;-59
2022/08/04 07:40:37;;;;;;;6.55;2.58;;;25.90;99.90;;;;;;5046292;28;20373;-59
2022/08/04 07:43:04;;;;;;;5.22;2.30;;;25.90;99.90;;;;;;5046582;28;20032;-60
2022/08/04 07:45:30;;;;;;;7.72;2.70;;;26.10;99.90;;;;;;5046560;28;20021;-60
2022/08/04 07:47:56;;;;;;;6.15;2.90;;;26.20;99.90;;;;;;5046362;28;20025;-60
2022/08/04 07:50:22;;;;;;;6.15;2.60;;;26.20;99.90;;;;;;5051914;28;20453;-60
2022/08/04 07:52:48;;;;;;;8.77;2.67;;;26.50;99.90;;;;;;5046177;28;20048;-60
2022/08/04 07:55:15;;;;;;;5.68;2.47;;;26.80;99.90;;;;;;5046541;28;20067;-60
2022/08/04 07:57:40;;;;;;;6.95;2.60;;;27.00;99.90;;;;;;5046949;28;20716;-60
2022/08/04 08:00:07;;;;;;;4.28;2.20;;;;;;;;;;5046123;28;20021;-60
2022/08/04 08:02:34;;;;;;;7.07;2.67;;;27.60;99.90;;;;;;5046923;28;20063;-60
2022/08/04 08:05:00;;;;;;;4.07;1.90;;;27.50;99.90;;;;;;5051569;28;20047;-60
2022/08/04 08:07:26;;;;;;;4.85;2.15;;;27.60;99.90;;;;;;5047393;28;20031;-59
2022/08/04 08:09:52;;;;;;;6.53;2.63;;;27.50;99.90;;;;;;5040133;28;20384;-60
2022/08/04 08:12:18;;;;;;;5.53;2.50;;;27.00;99.90;;;;;;5046357;28;20029;-59
2022/08/04 08:14:45;;;;;;;5.68;2.38;;;27.40;99.90;;;;;;5039119;28;20032;-61
2022/08/04 08:17:10;;;;;;;8.70;2.72;;;27.60;99.90;;;;;;5050696;28;20071;-60
2022/08/04 08:19:37;;;;;;;5.03;2.30;;;27.70;99.90;;;;;;5048975;28;20442;-60
2022/08/04 08:22:03;;;;;;;3.47;2.20;;;27.80;99.90;;;;;;5046037;28;20763;-60
2022/08/04 08:24:30;;;;;;;7.95;2.65;;;;;;;;;;5045056;28;20055;-60
2022/08/04 08:26:56;;;;;;;7.05;2.25;;;27.70;99.90;;;;;;5045798;28;20025;-60
2022/08/04 08:29:23;;;;;;;5.28;2.40;;;27.70;99.90;;;;;;5050169;28;20218;-61
2022/08/04 08:31:49;;;;;;;5.55;2.67;;;27.70;99.90;;;;;;5043461;28;20091;-61
2022/08/04 08:34:14;;;;;;;11.18;2.85;;;27.90;99.90;;;;;;5045510;28;20032;-59
2022/08/04 08:36:46;;;;;;;5.32;2.60;;;28.10;99.90;;;;;;5045237;28;20481;-60
2022/08/04 08:39:24;;;;;;;7.22;2.40;;;28.30;99.90;;;;;;5047738;28;20036;-60
2022/08/04 08:42:14;;;;;;;7.13;2.67;;;28.40;99.90;;;;;;5045302;28;20021;-61
2022/08/04 08:45:05;;;;;;;8.55;2.58;;;28.50;99.90;;;;;;5038487;28;20048;-63
2022/08/04 08:47:40;;;;;;;9.63;2.00;;;28.50;99.90;;;;;;5040201;28;20045;-60
2022/08/04 08:50:19;;;;;;;7.13;2.30;;;28.20;99.90;;;;;;5045246;28;20031;-61
2022/08/04 08:53:16;;;;;;;7.30;2.15;;;28.00;99.90;;;;;;5040258;28;20513;-60
2022/08/04 08:56:09;;;;;;;5.30;2.17;;;27.90;99.90;;;;;;5045292;28;20499;-61
2022/08/04 08:59:12;;;;;;;9.02;2.40;;;28.00;99.90;;;;;;5040776;28;20312;-60
2022/08/04 09:02:01;;;;;;;7.10;2.42;;;28.00;99.90;;;;;;5048134;28;20033;-61
2022/08/04 09:04:38;;;;;;;6.22;2.30;;;27.90;99.90;;;;;;5044424;28;20544;-60
2022/08/04 09:07:42;;;;;;;10.43;2.47;;;28.00;99.90;;;;;;5045465;28;20095;-60
2022/08/04 09:10:23;;;;;;;7.93;2.50;;;28.10;99.90;;;;;;5041141;28;20528;-60
2022/08/04 09:12:56;;;;;;;8.57;2.75;;;28.00;99.90;;;;;;5045278;28;20048;-60
2022/08/04 09:15:44;;;;;;;12.48;2.80;;;28.20;99.90;;;;;;5045153;28;20045;-60
2022/08/04 09:18:20;;;;;;;10.35;2.42;;;28.40;99.90;;;;;;5048475;28;20033;-60
2022/08/04 09:20:48;;;;;;;6.20;2.65;;;28.30;99.90;;;;;;5043887;28;20136;-60
2022/08/04 09:23:34;;;;;;;9.20;2.55;;;28.30;99.90;;;;;;5044564;28;20092;-60
2022/08/04 09:26:07;;;;;;;11.43;2.60;;;28.50;99.90;;;;;;5042591;28;20021;-60
2022/08/04 09:29:16;;;;;;;11.63;2.55;;;28.60;99.90;;;;;;5044889;28;20057;-60
2022/08/04 09:31:52;;;;;;;7.88;2.67;;;28.80;99.90;;;;;;5040640;28;20436;-61
2022/08/04 09:34:39;;;;;;;10.43;2.40;;;28.90;99.90;;;;;;5044358;28;20041;-61
2022/08/04 09:37:19;;;;;;;7.75;2.60;;;29.00;99.90;;;;;;5044683;28;20147;-60
2022/08/04 09:40:12;;;;;;;9.88;2.90;;;29.00;99.90;;;;;;5044072;28;20584;-60
2022/08/04 09:43:04;;;;;;;11.13;2.70;;;29.00;99.90;;;;;;5044026;28;20875;-61
2022/08/04 09:45:43;;;;;;;13.90;2.67;;;29.10;99.90;;;;;;5044209;28;20477;-61
2022/08/04 09:48:33;;;;;;;8.52;2.50;;;29.00;99.90;;;;;;5042493;28;20025;-61
2022/08/04 09:50:58;;;;;;;9.10;2.28;;;29.20;99.90;;;;;;5044314;28;20021;-61
2022/08/04 09:53:48;;;;;;;7.85;2.47;;;29.20;99.90;;;;;;5043669;28;20029;-60
2022/08/04 09:56:22;;;;;;;9.70;2.15;;;29.20;99.90;;;;;;5039801;28;20056;-61
2022/08/04 09:59:25;;;;;;;6.63;2.28;;;29.30;99.90;;;;;;5044155;28;20017;-60
2022/08/04 10:01:58;;;;;;;6.50;2.22;;;29.30;99.90;;;;;;5043978;28;20025;-60
2022/08/04 10:04:28;;;;;;;11.07;2.40;;;29.30;99.90;;;;;;5039478;28;20029;-60
2022/08/04 10:07:21;;;;;;;8.20;2.30;;;29.60;99.90;;;;;;5043987;28;20031;-60
2022/08/04 10:10:04;;;;;;;9.18;2.22;;;29.60;99.90;;;;;;5044243;28;20128;-60
2022/08/04 10:13:04;;;;;;;8.63;2.50;;;29.60;99.90;;;;;;5038060;28;20025;-61
2022/08/04 10:15:43;;;;;;;9.00;1.90;;;29.70;99.90;;;;;;5026623;28;20128;-61
2022/08/04 10:18:50;;;;;;;7.82;2.42;;;29.70;99.90;;;;;;5042477;28;20066;-61
2022/08/04 10:21:30;;;;;;;6.70;1.77;;;29.90;99.90;;;;;;5042476;28;20036;-60
2022/08/04 10:24:06;;;;;;;9.38;2.70;;;29.80;99.90;;;;;;5037672;28;20079;-61
2022/08/04 10:26:57;;;;;;;9.48;2.10;;;29.80;99.90;;;;;;5037788;28;20021;-61
2022/08/04 10:29:45;;;;;;;9.30;2.25;;;29.70;99.90;;;;;;5043511;28;20097;-61
2022/08/04 10:32:25;;;;;;;6.97;2.40;;;29.70;99.90;;;;;;5041370;28;20056;-60
2022/08/04 10:35:13;;;;;;;9.07;2.65;;;29.70;99.90;;;;;;5043665;28;20123;-61
2022/08/04 10:37:44;;;;;;;4.95;2.25;;;29.60;99.90;;;;;;5042289;28;20027;-61
2022/08/04 10:40:44;;;;;;;10.98;2.58;;;29.70;99.90;;;;;;5039146;28;20584;-60
2022/08/04 10:43:34;;;;;;;8.63;2.58;;;30.00;99.90;;;;;;5040413;28;20021;-62
2022/08/04 10:46:20;;;;;;;6.70;2.10;;;30.00;99.90;;;;;;5042880;28;20032;-61
2022/08/04 10:49:04;;;;;;;9.45;2.17;;;29.90;99.90;;;;;;5037857;28;20032;-61
2022/08/04 10:51:44;;;;;;;6.30;2.30;;;30.00;99.90;;;;;;5043254;28;20082;-61
2022/08/04 10:54:14;;;;;;;8.70;2.22;;;30.20;99.90;;;;;;5041562;28;20028;-61
2022/08/04 10:56:49;;;;;;;5.25;2.10;;;30.20;99.90;;;;;;5048343;28;20112;-61
2022/08/04 10:59:21;;;;;;;6.63;1.98;;;30.50;99.90;;;;;;5042502;28;20501;-61
2022/08/04 11:01:49;;;;;;;10.20;2.30;;;30.40;99.90;;;;;;5043259;28;20556;-60
2022/08/04 11:04:24;;;;;;;10.38;2.10;;;30.50;99.90;;;;;;5035177;28;20078;-60
2022/08/04 11:06:51;;;;;;;7.70;2.10;;;30.40;99.90;;;;;;5037606;28;20488;-61
2022/08/04 11:09:18;;;;;;;5.78;2.00;;;30.40;99.90;;;;;;5042721;28;20032;-59
2022/08/04 11:11:53;;;;;;;8.88;1.90;;;30.30;99.90;;;;;;5043125;28;20132;-60
2022/08/04 11:14:28;;;;;;;5.45;1.90;;;30.30;99.90;;;;;;5044619;28;20052;-60
2022/08/04 11:17:05;;;;;;;7.35;2.00;;;30.20;99.90;;;;;;5043662;28;20632;-60
2022/08/04 11:19:37;;;;;;;6.80;1.70;;;30.20;99.90;;;;;;5048225;28;20029;-60
2022/08/04 11:22:08;;;;;;;5.25;1.85;;;30.20;99.90;;;;;;5042671;28;20017;-61
2022/08/04 11:24:50;;;;;;;8.00;2.10;;;30.20;99.90;;;;;;5043294;28;20017;-60
2022/08/04 11:27:36;;;;;;;10.10;2.10;;;30.20;99.90;;;;;;5043004;28;20025;-60
2022/08/04 11:30:06;;;;;;;5.60;2.10;;;30.20;99.90;;;;;;5041900;28;20020;-61
2022/08/04 11:32:42;;;;;;;8.20;2.28;;;30.10;99.90;;;;;;5042560;28;20057;-61
2022/08/04 11:35:19;;;;;;;10.73;2.40;;;30.30;99.90;;;;;;5043011;28;20029;-61
2022/08/04 11:37:49;;;;;;;11.20;2.33;;;;;;;;;;5042596;28;20061;-61
2022/08/04 11:40:27;;;;;;;8.23;2.28;;;;;;;;;;5042002;28;20028;-60
2022/08/04 11:43:01;;;;;;;9.05;2.20;;;29.80;99.90;;;;;;5042154;28;20569;-60
2022/08/04 11:45:40;;;;;;;12.23;2.30;;;29.70;99.90;;;;;;5038785;28;20021;-61
2022/08/04 11:48:10;;;;;;;10.15;2.38;;;;;;;;;;5042170;28;20029;-60
2022/08/04 11:50:52;;;;;;;5.43;1.90;;;;;;;;;;5042399;28;20025;-61
2022/08/04 11:53:19;;;;;;;8.50;2.47;;;;;;;;;;5041768;28;20027;-60
2022/08/04 11:55:48;;;;;;;9.25;2.28;;;;;;;;;;5043725;28;20330;-61
2022/08/04 11:58:15;;;;;;;6.72;2.20;;;29.10;99.90;;;;;;5045829;28;20032;-59
2022/08/04 12:00:53;;;;;;;9.10;2.42;;;29.20;99.90;;;;;;5045901;28;20028;-61
2022/08/04 12:03:44;;;;;;;9.00;2.47;;;28.80;99.90;;;;;;5045385;28;20024;-61
2022/08/04 12:06:13;;;;;;;5.68;2.22;;;29.00;99.90;;;;;;5041433;28;20036;-61
2022/08/04 12:09:06;;;;;;;7.40;2.63;;;29.10;99.90;;;;;;5045690;28;20029;-60
2022/08/04 12:12:05;;;;;;;8.57;2.53;;;28.90;99.90;;;;;;5046149;28;20029;-61
2022/08/04 12:14:40;;;;;;;13.45;4.47;;;;;;;;;;5043320;28;20033;-60
2022/08/04 12:17:08;;;;;;;13.95;4.72;;;;;;;;;;5046664;28;20029;-61
2022/08/04 12:19:37;;;;;;;12.40;4.97;;;28.40;99.90;;;;;;5051046;28;20031;-61
2022/08/04 12:22:13;;;;;;;10.98;4.72;;;28.50;99.90;;;;;;5045688;28;20137;-60
2022/08/04 12:24:55;;;;;;;9.73;4.30;;;;;;;;;;5045755;28;20021;-61
2022/08/04 12:27:29;;;;;;;12.48;5.20;;;;;;;;;;5044529;28;20108;-61
2022/08/04 12:29:58;;;;;;;12.32;5.20;;;;;;;;;;5039777;28;20048;-60
2022/08/04 12:32:34;;;;;;;12.15;4.90;;;;;;;;;;5043945;28;20036;-59
2022/08/04 12:35:11;;;;;;;12.73;5.20;;;28.50;99.90;;;;;;5040860;28;20392;-59
2022/08/04 12:38:02;;;;;;;12.02;5.47;;;28.50;99.90;;;;;;5042500;28;20481;-61
2022/08/04 12:40:56;;;;;;;10.73;4.60;;;28.90;99.90;;;;;;5047118;28;20025;-61
2022/08/04 12:43:37;;;;;;;12.70;5.03;;;;;;;;;;5041522;28;20033;-60
2022/08/04 12:46:09;;;;;;;10.00;4.22;;;;;;;;;;5043441;28;20021;-60
2022/08/04 12:48:38;;;;;;;7.22;3.83;;;28.80;99.90;;;;;;5044094;28;20169;-60
2022/08/04 12:51:07;;;;;;;11.68;3.75;;;28.90;99.90;;;;;;5045378;28;20025;-60
2022/08/04 12:53:37;;;;;;;12.77;3.97;;;29.00;99.90;;;;;;5045213;28;20613;-60
2022/08/04 12:56:03;;;;;;;11.18;3.72;;;28.80;99.90;;;;;;5044808;28;20477;-61
2022/08/04 12:58:32;;;;;;;9.98;3.40;;;;;;;;;;5043746;28;20070;-61
2022/08/04 13:01:03;;;;;;;12.02;3.40;;;;;;;;;;5039936;28;20465;-60
2022/08/04 13:03:36;;;;;;;8.00;2.78;;;;;;;;;;5044712;28;20028;-61
2022/08/04 13:06:04;;;;;;;8.52;2.95;;;;;;;;;;5043981;28;20473;-61
2022/08/04 13:08:36;;;;;;;8.20;2.90;;;;;;;;;;5044838;28;20110;-60
2022/08/04 13:11:03;;;;;;;6.25;2.47;;;28.90;99.90;;;;;;5039921;28;20048;-61
2022/08/04 13:13:33;;;;;;;8.82;2.45;;;28.80;99.90;;;;;;5047093;28;20842;-60
2022/08/04 13:16:07;;;;;;;7.68;2.80;;;;;;;;;;5044964;28;20052;-61
2022/08/04 13:18:38;;;;;;;9.30;2.58;;;;;;;;;;5054107;28;20404;-61
2022/08/04 13:21:11;;;;;;;7.32;2.35;;;;;;;;;;5049059;28;20025;-60
2022/08/04 13:23:38;;;;;;;17.95;3.97;;;28.80;99.90;;;;;;5047896;28;20028;-60
2022/08/04 13:26:10;;;;;;;8.68;2.67;;;29.10;99.90;;;;;;5047607;28;20116;-61
2022/08/04 13:28:42;;;;;;;10.05;2.85;;;29.10;99.90;;;;;;5043325;28;20083;-61
2022/08/04 13:31:12;;;;;;;8.00;2.50;;;29.10;99.90;;;;;;5043803;28;20025;-61
2022/08/04 13:33:41;;;;;;;7.68;2.67;;;29.20;99.90;;;;;;5042850;28;20032;-60
2022/08/04 13:36:08;;;;;;;8.13;2.65;;;29.00;99.90;;;;;;5044293;28;20052;-60
2022/08/04 13:38:38;;;;;;;8.65;2.78;;;28.90;99.90;;;;;;5044815;28;20059;-61
2022/08/04 13:41:05;;;;;;;7.95;2.55;;;;;;;;;;5044771;28;20021;-61
2022/08/04 13:43:34;;;;;;;7.50;2.60;;;;;;;;;;5049399;28;20417;-60